sensor_id;sensor_type;location;lat;lon;timestamp;P1;durP1;ratioP1;P2;durP2;ratioP2
46222;SDS011;31943;51.410;7.564;2023-08-07T00:00:12;1.48;;;0.77;;
46222;SDS011;31943;51.410;7.564;2023-08-07T00:02:38;1.85;;;0.50;;
46222;SDS011;31943;51.410;7.564;2023-08-07T00:05:05;1.80;;;0.60;;
46222;SDS011;31943;51.410;7.564;2023-08-07T00:07:31;2.60;;;0.68;;
46222;SDS011;31943;51.410;7.564;2023-08-07T00:09:58;1.70;;;0.75;;
46222;SDS011;31943;51.410;7.564;2023-08-07T00:12:25;1.33;;;0.60;;
46222;SDS011;31943;51.410;7.564;2023-08-07T00:14:51;3.13;;;1.13;;
46222;SDS011;31943;51.410;7.564;2023-08-07T00:17:17;2.78;;;1.00;;
46222;SDS011;31943;51.410;7.564;2023-08-07T00:19:43;2.03;;;0.80;;
46222;SDS011;31943;51.410;7.564;2023-08-07T00:22:10;1.15;;;0.80;;
46222;SDS011;31943;51.410;7.564;2023-08-07T00:24:36;1.50;;;0.90;;
46222;SDS011;31943;51.410;7.564;2023-08-07T00:27:02;3.05;;;0.70;;
46222;SDS011;31943;51.410;7.564;2023-08-07T00:29:29;1.55;;;0.80;;
46222;SDS011;31943;51.410;7.564;2023-08-07T00:31:54;1.27;;;0.60;;
46222;SDS011;31943;51.410;7.564;2023-08-07T00:34:20;1.38;;;1.00;;
46222;SDS011;31943;51.410;7.564;2023-08-07T00:36:46;0.80;;;0.80;;
46222;SDS011;31943;51.410;7.564;2023-08-07T00:39:13;1.40;;;0.80;;
46222;SDS011;31943;51.410;7.564;2023-08-07T00:41:39;1.25;;;0.85;;
46222;SDS011;31943;51.410;7.564;2023-08-07T00:44:05;2.30;;;0.77;;
46222;SDS011;31943;51.410;7.564;2023-08-07T00:46:31;0.93;;;0.63;;
46222;SDS011;31943;51.410;7.564;2023-08-07T00:48:56;1.80;;;1.30;;
46222;SDS011;31943;51.410;7.564;2023-08-07T00:51:22;1.20;;;0.90;;
46222;SDS011;31943;51.410;7.564;2023-08-07T00:53:49;2.67;;;0.77;;
46222;SDS011;31943;51.410;7.564;2023-08-07T00:56:17;1.67;;;0.90;;
46222;SDS011;31943;51.410;7.564;2023-08-07T00:58:43;1.42;;;1.00;;
46222;SDS011;31943;51.410;7.564;2023-08-07T01:01:09;1.52;;;0.93;;
46222;SDS011;31943;51.410;7.564;2023-08-07T01:03:37;1.05;;;0.85;;
46222;SDS011;31943;51.410;7.564;2023-08-07T01:06:03;1.20;;;1.10;;
46222;SDS011;31943;51.410;7.564;2023-08-07T01:08:29;2.25;;;1.10;;
46222;SDS011;31943;51.410;7.564;2023-08-07T01:11:03;1.17;;;0.85;;
46222;SDS011;31943;51.410;7.564;2023-08-07T01:13:49;2.17;;;1.15;;
46222;SDS011;31943;51.410;7.564;2023-08-07T01:16:21;3.53;;;1.50;;
46222;SDS011;31943;51.410;7.564;2023-08-07T01:18:51;2.00;;;1.48;;
46222;SDS011;31943;51.410;7.564;2023-08-07T01:21:18;3.47;;;1.63;;
46222;SDS011;31943;51.410;7.564;2023-08-07T01:23:47;4.75;;;2.08;;
46222;SDS011;31943;51.410;7.564;2023-08-07T01:26:13;2.20;;;1.80;;
46222;SDS011;31943;51.410;7.564;2023-08-07T01:28:41;3.85;;;1.63;;
46222;SDS011;31943;51.410;7.564;2023-08-07T01:31:12;3.85;;;2.28;;
46222;SDS011;31943;51.410;7.564;2023-08-07T01:33:43;3.03;;;2.38;;
46222;SDS011;31943;51.410;7.564;2023-08-07T01:36:14;5.00;;;2.50;;
46222;SDS011;31943;51.410;7.564;2023-08-07T01:38:41;4.35;;;2.92;;
46222;SDS011;31943;51.410;7.564;2023-08-07T01:41:10;3.88;;;2.90;;
46222;SDS011;31943;51.410;7.564;2023-08-07T01:43:37;5.20;;;2.75;;
46222;SDS011;31943;51.410;7.564;2023-08-07T01:46:03;3.05;;;2.75;;
46222;SDS011;31943;51.410;7.564;2023-08-07T01:48:28;3.63;;;2.80;;
46222;SDS011;31943;51.410;7.564;2023-08-07T01:50:54;3.10;;;2.65;;
46222;SDS011;31943;51.410;7.564;2023-08-07T01:53:21;3.47;;;2.53;;
46222;SDS011;31943;51.410;7.564;2023-08-07T01:55:48;3.00;;;2.70;;
46222;SDS011;31943;51.410;7.564;2023-08-07T01:58:16;4.05;;;2.55;;
46222;SDS011;31943;51.410;7.564;2023-08-07T02:00:42;4.03;;;2.40;;
46222;SDS011;31943;51.410;7.564;2023-08-07T02:03:08;2.60;;;2.03;;
46222;SDS011;31943;51.410;7.564;2023-08-07T02:05:35;4.60;;;2.42;;
46222;SDS011;31943;51.410;7.564;2023-08-07T02:08:00;4.60;;;2.60;;
46222;SDS011;31943;51.410;7.564;2023-08-07T02:10:26;3.70;;;2.28;;
46222;SDS011;31943;51.410;7.564;2023-08-07T02:12:52;2.38;;;2.17;;
46222;SDS011;31943;51.410;7.564;2023-08-07T02:15:22;2.97;;;2.42;;
46222;SDS011;31943;51.410;7.564;2023-08-07T02:17:47;3.67;;;2.75;;
46222;SDS011;31943;51.410;7.564;2023-08-07T02:20:13;3.72;;;3.30;;
46222;SDS011;31943;51.410;7.564;2023-08-07T02:22:39;5.18;;;3.40;;
46222;SDS011;31943;51.410;7.564;2023-08-07T02:25:05;4.20;;;3.67;;
46222;SDS011;31943;51.410;7.564;2023-08-07T02:27:31;4.63;;;4.13;;
46222;SDS011;31943;51.410;7.564;2023-08-07T02:29:58;5.13;;;3.88;;
46222;SDS011;31943;51.410;7.564;2023-08-07T02:32:26;5.85;;;4.35;;
46222;SDS011;31943;51.410;7.564;2023-08-07T02:34:52;3.92;;;3.58;;
46222;SDS011;31943;51.410;7.564;2023-08-07T02:37:18;6.72;;;3.88;;
46222;SDS011;31943;51.410;7.564;2023-08-07T02:39:44;4.22;;;3.10;;
46222;SDS011;31943;51.410;7.564;2023-08-07T02:42:10;3.45;;;2.85;;
46222;SDS011;31943;51.410;7.564;2023-08-07T02:44:35;3.03;;;2.50;;
46222;SDS011;31943;51.410;7.564;2023-08-07T02:47:01;2.67;;;1.77;;
46222;SDS011;31943;51.410;7.564;2023-08-07T02:49:29;2.95;;;1.90;;
46222;SDS011;31943;51.410;7.564;2023-08-07T02:51:56;3.80;;;2.05;;
46222;SDS011;31943;51.410;7.564;2023-08-07T02:54:21;3.72;;;2.00;;
46222;SDS011;31943;51.410;7.564;2023-08-07T02:56:47;1.60;;;1.50;;
46222;SDS011;31943;51.410;7.564;2023-08-07T02:59:12;2.38;;;1.60;;
46222;SDS011;31943;51.410;7.564;2023-08-07T03:01:39;2.40;;;1.88;;
46222;SDS011;31943;51.410;7.564;2023-08-07T03:04:05;2.05;;;1.83;;
46222;SDS011;31943;51.410;7.564;2023-08-07T03:06:33;2.67;;;2.38;;
46222;SDS011;31943;51.410;7.564;2023-08-07T03:08:58;2.45;;;1.40;;
46222;SDS011;31943;51.410;7.564;2023-08-07T03:11:24;2.40;;;2.20;;
46222;SDS011;31943;51.410;7.564;2023-08-07T03:13:51;3.53;;;2.50;;
46222;SDS011;31943;51.410;7.564;2023-08-07T03:16:16;4.15;;;2.00;;
46222;SDS011;31943;51.410;7.564;2023-08-07T03:18:42;2.47;;;1.88;;
46222;SDS011;31943;51.410;7.564;2023-08-07T03:21:08;3.58;;;2.00;;
46222;SDS011;31943;51.410;7.564;2023-08-07T03:23:37;3.88;;;2.13;;
46222;SDS011;31943;51.410;7.564;2023-08-07T03:26:03;3.05;;;2.08;;
46222;SDS011;31943;51.410;7.564;2023-08-07T03:28:29;3.78;;;2.35;;
46222;SDS011;31943;51.410;7.564;2023-08-07T03:30:54;3.40;;;2.40;;
46222;SDS011;31943;51.410;7.564;2023-08-07T03:33:20;3.35;;;2.13;;
46222;SDS011;31943;51.410;7.564;2023-08-07T03:35:47;3.83;;;1.85;;
46222;SDS011;31943;51.410;7.564;2023-08-07T03:38:13;2.75;;;1.90;;
46222;SDS011;31943;51.410;7.564;2023-08-07T03:40:40;1.75;;;1.63;;
46222;SDS011;31943;51.410;7.564;2023-08-07T03:43:06;5.57;;;1.88;;
46222;SDS011;31943;51.410;7.564;2023-08-07T03:45:32;1.98;;;1.55;;
46222;SDS011;31943;51.410;7.564;2023-08-07T03:47:59;3.05;;;1.48;;
46222;SDS011;31943;51.410;7.564;2023-08-07T03:50:24;2.67;;;1.40;;
46222;SDS011;31943;51.410;7.564;2023-08-07T03:52:50;1.83;;;1.30;;
46222;SDS011;31943;51.410;7.564;2023-08-07T03:55:15;4.88;;;1.45;;
46222;SDS011;31943;51.410;7.564;2023-08-07T03:57:43;1.85;;;1.08;;
46222;SDS011;31943;51.410;7.564;2023-08-07T04:00:08;2.45;;;1.10;;
46222;SDS011;31943;51.410;7.564;2023-08-07T04:02:35;2.25;;;1.20;;
46222;SDS011;31943;51.410;7.564;2023-08-07T04:05:01;2.35;;;1.05;;
46222;SDS011;31943;51.410;7.564;2023-08-07T04:07:27;4.18;;;1.27;;
46222;SDS011;31943;51.410;7.564;2023-08-07T04:09:53;1.80;;;1.08;;
46222;SDS011;31943;51.410;7.564;2023-08-07T04:12:18;5.93;;;1.55;;
46222;SDS011;31943;51.410;7.564;2023-08-07T04:14:46;3.38;;;1.60;;
46222;SDS011;31943;51.410;7.564;2023-08-07T04:17:11;5.75;;;2.50;;
46222;SDS011;31943;51.410;7.564;2023-08-07T04:19:37;3.95;;;2.53;;
46222;SDS011;31943;51.410;7.564;2023-08-07T04:22:02;3.45;;;2.75;;
46222;SDS011;31943;51.410;7.564;2023-08-07T04:24:28;3.85;;;3.00;;
46222;SDS011;31943;51.410;7.564;2023-08-07T04:26:54;4.05;;;3.22;;
46222;SDS011;31943;51.410;7.564;2023-08-07T04:29:20;5.50;;;4.05;;
46222;SDS011;31943;51.410;7.564;2023-08-07T04:31:47;8.18;;;4.70;;
46222;SDS011;31943;51.410;7.564;2023-08-07T04:34:13;6.50;;;5.10;;
46222;SDS011;31943;51.410;7.564;2023-08-07T04:36:39;8.65;;;5.70;;
46222;SDS011;31943;51.410;7.564;2023-08-07T04:39:06;8.55;;;6.13;;
46222;SDS011;31943;51.410;7.564;2023-08-07T04:41:32;10.23;;;6.43;;
46222;SDS011;31943;51.410;7.564;2023-08-07T04:43:59;9.85;;;7.22;;
46222;SDS011;31943;51.410;7.564;2023-08-07T04:46:24;9.73;;;6.75;;
46222;SDS011;31943;51.410;7.564;2023-08-07T04:48:52;10.93;;;8.25;;
46222;SDS011;31943;51.410;7.564;2023-08-07T04:51:18;8.85;;;7.45;;
46222;SDS011;31943;51.410;7.564;2023-08-07T04:53:43;15.10;;;8.85;;
46222;SDS011;31943;51.410;7.564;2023-08-07T04:56:10;11.82;;;8.13;;
46222;SDS011;31943;51.410;7.564;2023-08-07T04:58:36;10.73;;;9.30;;
46222;SDS011;31943;51.410;7.564;2023-08-07T05:01:02;16.70;;;9.23;;
46222;SDS011;31943;51.410;7.564;2023-08-07T05:03:28;15.65;;;9.20;;
46222;SDS011;31943;51.410;7.564;2023-08-07T05:05:59;16.20;;;10.18;;
46222;SDS011;31943;51.410;7.564;2023-08-07T05:08:25;13.93;;;10.00;;
46222;SDS011;31943;51.410;7.564;2023-08-07T05:10:53;12.63;;;9.63;;
46222;SDS011;31943;51.410;7.564;2023-08-07T05:13:19;10.77;;;9.60;;
46222;SDS011;31943;51.410;7.564;2023-08-07T05:15:46;10.73;;;9.45;;
46222;SDS011;31943;51.410;7.564;2023-08-07T05:18:12;13.20;;;9.57;;
46222;SDS011;31943;51.410;7.564;2023-08-07T05:20:38;11.55;;;8.68;;
46222;SDS011;31943;51.410;7.564;2023-08-07T05:23:05;11.95;;;9.68;;
46222;SDS011;31943;51.410;7.564;2023-08-07T05:25:31;10.43;;;9.20;;
46222;SDS011;31943;51.410;7.564;2023-08-07T05:27:56;12.20;;;9.60;;
46222;SDS011;31943;51.410;7.564;2023-08-07T05:30:22;11.68;;;9.80;;
46222;SDS011;31943;51.410;7.564;2023-08-07T05:32:48;12.60;;;9.57;;
46222;SDS011;31943;51.410;7.564;2023-08-07T05:35:14;14.77;;;10.18;;
46222;SDS011;31943;51.410;7.564;2023-08-07T05:37:39;12.38;;;10.32;;
46222;SDS011;31943;51.410;7.564;2023-08-07T05:40:07;10.27;;;8.77;;
46222;SDS011;31943;51.410;7.564;2023-08-07T05:42:33;13.57;;;8.75;;
46222;SDS011;31943;51.410;7.564;2023-08-07T05:44:59;9.18;;;6.50;;
46222;SDS011;31943;51.410;7.564;2023-08-07T05:47:24;9.13;;;5.55;;
46222;SDS011;31943;51.410;7.564;2023-08-07T05:49:50;7.80;;;4.93;;
46222;SDS011;31943;51.410;7.564;2023-08-07T05:52:16;8.25;;;4.68;;
46222;SDS011;31943;51.410;7.564;2023-08-07T05:54:42;7.78;;;3.70;;
46222;SDS011;31943;51.410;7.564;2023-08-07T05:57:10;5.97;;;3.65;;
46222;SDS011;31943;51.410;7.564;2023-08-07T05:59:36;4.15;;;3.15;;
46222;SDS011;31943;51.410;7.564;2023-08-07T06:02:02;5.50;;;2.78;;
46222;SDS011;31943;51.410;7.564;2023-08-07T06:04:28;5.00;;;2.38;;
46222;SDS011;31943;51.410;7.564;2023-08-07T06:06:54;4.22;;;2.40;;
46222;SDS011;31943;51.410;7.564;2023-08-07T06:09:19;6.15;;;2.65;;
46222;SDS011;31943;51.410;7.564;2023-08-07T06:11:45;5.60;;;1.88;;
46222;SDS011;31943;51.410;7.564;2023-08-07T06:14:13;5.57;;;2.38;;
46222;SDS011;31943;51.410;7.564;2023-08-07T06:16:38;3.95;;;1.80;;
46222;SDS011;31943;51.410;7.564;2023-08-07T06:19:04;3.75;;;1.88;;
46222;SDS011;31943;51.410;7.564;2023-08-07T06:21:30;6.63;;;2.55;;
46222;SDS011;31943;51.410;7.564;2023-08-07T06:23:55;4.38;;;1.95;;
46222;SDS011;31943;51.410;7.564;2023-08-07T06:26:21;3.65;;;2.10;;
46222;SDS011;31943;51.410;7.564;2023-08-07T06:28:47;3.25;;;2.30;;
46222;SDS011;31943;51.410;7.564;2023-08-07T06:31:15;2.70;;;1.98;;
46222;SDS011;31943;51.410;7.564;2023-08-07T06:33:41;4.05;;;2.35;;
46222;SDS011;31943;51.410;7.564;2023-08-07T06:36:07;5.95;;;2.20;;
46222;SDS011;31943;51.410;7.564;2023-08-07T06:38:33;4.72;;;2.10;;
46222;SDS011;31943;51.410;7.564;2023-08-07T06:40:59;3.83;;;2.08;;
46222;SDS011;31943;51.410;7.564;2023-08-07T06:43:24;3.85;;;2.30;;
46222;SDS011;31943;51.410;7.564;2023-08-07T06:45:50;2.80;;;1.92;;
46222;SDS011;31943;51.410;7.564;2023-08-07T06:48:18;2.63;;;1.70;;
46222;SDS011;31943;51.410;7.564;2023-08-07T06:50:44;3.72;;;1.98;;
46222;SDS011;31943;51.410;7.564;2023-08-07T06:53:12;5.00;;;2.50;;
46222;SDS011;31943;51.410;7.564;2023-08-07T06:55:38;4.53;;;3.08;;
46222;SDS011;31943;51.410;7.564;2023-08-07T06:58:05;5.25;;;3.45;;
46222;SDS011;31943;51.410;7.564;2023-08-07T07:00:31;6.88;;;4.22;;
46222;SDS011;31943;51.410;7.564;2023-08-07T07:02:57;4.63;;;4.22;;
46222;SDS011;31943;51.410;7.564;2023-08-07T07:05:24;4.68;;;4.22;;
46222;SDS011;31943;51.410;7.564;2023-08-07T07:07:50;5.25;;;4.38;;
46222;SDS011;31943;51.410;7.564;2023-08-07T07:10:16;5.60;;;4.50;;
46222;SDS011;31943;51.410;7.564;2023-08-07T07:12:42;4.65;;;4.25;;
46222;SDS011;31943;51.410;7.564;2023-08-07T07:15:09;6.90;;;5.18;;
46222;SDS011;31943;51.410;7.564;2023-08-07T07:17:35;5.90;;;5.30;;
46222;SDS011;31943;51.410;7.564;2023-08-07T07:20:00;7.90;;;4.82;;
46222;SDS011;31943;51.410;7.564;2023-08-07T07:22:28;6.57;;;4.85;;
46222;SDS011;31943;51.410;7.564;2023-08-07T07:24:53;5.70;;;5.20;;
46222;SDS011;31943;51.410;7.564;2023-08-07T07:27:19;6.45;;;4.80;;
46222;SDS011;31943;51.410;7.564;2023-08-07T07:29:45;5.18;;;4.68;;
46222;SDS011;31943;51.410;7.564;2023-08-07T07:32:10;4.90;;;4.30;;
46222;SDS011;31943;51.410;7.564;2023-08-07T07:34:36;4.78;;;4.38;;
46222;SDS011;31943;51.410;7.564;2023-08-07T07:37:02;6.07;;;4.45;;
46222;SDS011;31943;51.410;7.564;2023-08-07T07:39:29;5.15;;;4.65;;
46222;SDS011;31943;51.410;7.564;2023-08-07T07:41:56;5.95;;;4.75;;
46222;SDS011;31943;51.410;7.564;2023-08-07T07:44:22;5.57;;;5.00;;
46222;SDS011;31943;51.410;7.564;2023-08-07T07:46:48;5.78;;;5.28;;
46222;SDS011;31943;51.410;7.564;2023-08-07T07:49:13;5.40;;;5.00;;
46222;SDS011;31943;51.410;7.564;2023-08-07T07:51:39;5.22;;;4.70;;
46222;SDS011;31943;51.410;7.564;2023-08-07T07:54:06;5.53;;;3.80;;
46222;SDS011;31943;51.410;7.564;2023-08-07T07:56:34;4.32;;;3.92;;
46222;SDS011;31943;51.410;7.564;2023-08-07T07:59:01;3.88;;;3.58;;
46222;SDS011;31943;51.410;7.564;2023-08-07T08:01:28;3.88;;;3.58;;
46222;SDS011;31943;51.410;7.564;2023-08-07T08:03:55;4.82;;;3.50;;
46222;SDS011;31943;51.410;7.564;2023-08-07T08:06:21;4.57;;;3.17;;
46222;SDS011;31943;51.410;7.564;2023-08-07T08:08:48;5.07;;;3.55;;
46222;SDS011;31943;51.410;7.564;2023-08-07T08:11:15;5.13;;;3.60;;
46222;SDS011;31943;51.410;7.564;2023-08-07T08:13:42;3.58;;;3.28;;
46222;SDS011;31943;51.410;7.564;2023-08-07T08:16:11;3.00;;;2.72;;
46222;SDS011;31943;51.410;7.564;2023-08-07T08:18:38;2.65;;;2.45;;
46222;SDS011;31943;51.410;7.564;2023-08-07T08:21:06;2.70;;;2.50;;
46222;SDS011;31943;51.410;7.564;2023-08-07T08:23:53;2.72;;;2.13;;
46222;SDS011;31943;51.410;7.564;2023-08-07T08:26:20;4.00;;;2.53;;
46222;SDS011;31943;51.410;7.564;2023-08-07T08:28:47;3.25;;;2.28;;
46222;SDS011;31943;51.410;7.564;2023-08-07T08:31:14;2.88;;;2.45;;
46222;SDS011;31943;51.410;7.564;2023-08-07T08:33:40;3.92;;;2.47;;
46222;SDS011;31943;51.410;7.564;2023-08-07T08:36:06;3.25;;;2.67;;
46222;SDS011;31943;51.410;7.564;2023-08-07T08:38:31;3.03;;;2.20;;
46222;SDS011;31943;51.410;7.564;2023-08-07T08:40:57;3.08;;;2.70;;
46222;SDS011;31943;51.410;7.564;2023-08-07T08:43:27;2.72;;;2.53;;
46222;SDS011;31943;51.410;7.564;2023-08-07T08:45:57;3.65;;;2.70;;
46222;SDS011;31943;51.410;7.564;2023-08-07T08:48:24;5.53;;;2.72;;
46222;SDS011;31943;51.410;7.564;2023-08-07T08:50:51;3.28;;;1.85;;
46222;SDS011;31943;51.410;7.564;2023-08-07T08:53:18;2.75;;;1.58;;
46222;SDS011;31943;51.410;7.564;2023-08-07T08:55:46;2.38;;;1.83;;
46222;SDS011;31943;51.410;7.564;2023-08-07T08:58:13;2.03;;;1.58;;
46222;SDS011;31943;51.410;7.564;2023-08-07T09:00:40;2.58;;;1.90;;
46222;SDS011;31943;51.410;7.564;2023-08-07T09:03:08;2.35;;;1.80;;
46222;SDS011;31943;51.410;7.564;2023-08-07T09:05:35;4.45;;;2.40;;
46222;SDS011;31943;51.410;7.564;2023-08-07T09:08:02;3.55;;;3.15;;
46222;SDS011;31943;51.410;7.564;2023-08-07T09:10:28;2.70;;;1.50;;
46222;SDS011;31943;51.410;7.564;2023-08-07T09:12:57;4.72;;;1.38;;
46222;SDS011;31943;51.410;7.564;2023-08-07T09:15:27;1.50;;;1.25;;
46222;SDS011;31943;51.410;7.564;2023-08-07T09:17:57;2.45;;;1.10;;
46222;SDS011;31943;51.410;7.564;2023-08-07T09:20:26;2.15;;;0.90;;
46222;SDS011;31943;51.410;7.564;2023-08-07T09:22:52;2.40;;;1.00;;
46222;SDS011;31943;51.410;7.564;2023-08-07T09:25:26;1.70;;;0.80;;
46222;SDS011;31943;51.410;7.564;2023-08-07T09:27:53;2.80;;;1.30;;
46222;SDS011;31943;51.410;7.564;2023-08-07T09:30:20;4.10;;;2.10;;
46222;SDS011;31943;51.410;7.564;2023-08-07T09:32:47;5.22;;;2.40;;
46222;SDS011;31943;51.410;7.564;2023-08-07T09:35:13;5.50;;;2.10;;
46222;SDS011;31943;51.410;7.564;2023-08-07T09:37:41;6.22;;;2.47;;
46222;SDS011;31943;51.410;7.564;2023-08-07T09:40:10;5.88;;;2.75;;
46222;SDS011;31943;51.410;7.564;2023-08-07T09:42:37;6.93;;;2.63;;
46222;SDS011;31943;51.410;7.564;2023-08-07T09:45:06;8.20;;;3.10;;
46222;SDS011;31943;51.410;7.564;2023-08-07T09:47:45;12.50;;;3.70;;
46222;SDS011;31943;51.410;7.564;2023-08-07T09:50:14;7.30;;;3.38;;
46222;SDS011;31943;51.410;7.564;2023-08-07T09:52:43;8.15;;;3.20;;
46222;SDS011;31943;51.410;7.564;2023-08-07T09:55:12;12.20;;;3.70;;
46222;SDS011;31943;51.410;7.564;2023-08-07T09:57:38;9.52;;;3.65;;
46222;SDS011;31943;51.410;7.564;2023-08-07T10:00:05;10.30;;;3.47;;
46222;SDS011;31943;51.410;7.564;2023-08-07T10:02:33;8.82;;;3.40;;
46222;SDS011;31943;51.410;7.564;2023-08-07T10:05:00;9.15;;;4.00;;
46222;SDS011;31943;51.410;7.564;2023-08-07T10:07:26;6.85;;;3.30;;
46222;SDS011;31943;51.410;7.564;2023-08-07T10:09:54;10.60;;;3.60;;
46222;SDS011;31943;51.410;7.564;2023-08-07T10:12:20;9.13;;;3.80;;
46222;SDS011;31943;51.410;7.564;2023-08-07T10:14:46;6.90;;;3.63;;
46222;SDS011;31943;51.410;7.564;2023-08-07T10:17:12;14.23;;;4.15;;
46222;SDS011;31943;51.410;7.564;2023-08-07T10:19:39;7.40;;;4.30;;
46222;SDS011;31943;51.410;7.564;2023-08-07T10:22:05;9.60;;;3.58;;
46222;SDS011;31943;51.410;7.564;2023-08-07T10:24:31;13.15;;;3.88;;
46222;SDS011;31943;51.410;7.564;2023-08-07T10:27:02;9.02;;;3.38;;
46222;SDS011;31943;51.410;7.564;2023-08-07T10:29:29;10.02;;;3.88;;
46222;SDS011;31943;51.410;7.564;2023-08-07T10:31:56;11.32;;;4.05;;
46222;SDS011;31943;51.410;7.564;2023-08-07T10:34:23;12.32;;;4.13;;
46222;SDS011;31943;51.410;7.564;2023-08-07T10:36:49;14.63;;;4.80;;
46222;SDS011;31943;51.410;7.564;2023-08-07T10:39:15;6.00;;;3.72;;
46222;SDS011;31943;51.410;7.564;2023-08-07T10:41:41;5.82;;;2.90;;
46222;SDS011;31943;51.410;7.564;2023-08-07T10:44:18;4.45;;;1.98;;
46222;SDS011;31943;51.410;7.564;2023-08-07T10:46:47;6.15;;;2.70;;
46222;SDS011;31943;51.410;7.564;2023-08-07T10:49:29;6.78;;;2.45;;
46222;SDS011;31943;51.410;7.564;2023-08-07T10:51:55;7.25;;;2.60;;
46222;SDS011;31943;51.410;7.564;2023-08-07T10:54:21;7.88;;;3.22;;
46222;SDS011;31943;51.410;7.564;2023-08-07T10:56:51;6.10;;;2.65;;
46222;SDS011;31943;51.410;7.564;2023-08-07T10:59:21;8.43;;;2.58;;
46222;SDS011;31943;51.410;7.564;2023-08-07T11:01:50;6.40;;;3.38;;
46222;SDS011;31943;51.410;7.564;2023-08-07T11:04:16;8.35;;;3.20;;
46222;SDS011;31943;51.410;7.564;2023-08-07T11:06:43;6.68;;;2.90;;
46222;SDS011;31943;51.410;7.564;2023-08-07T11:09:12;8.75;;;3.28;;
46222;SDS011;31943;51.410;7.564;2023-08-07T11:11:37;8.40;;;3.42;;
46222;SDS011;31943;51.410;7.564;2023-08-07T11:14:03;9.48;;;3.20;;
46222;SDS011;31943;51.410;7.564;2023-08-07T11:16:31;10.45;;;3.20;;
46222;SDS011;31943;51.410;7.564;2023-08-07T11:19:00;6.43;;;2.70;;
46222;SDS011;31943;51.410;7.564;2023-08-07T11:21:26;10.02;;;3.25;;
46222;SDS011;31943;51.410;7.564;2023-08-07T11:23:51;7.97;;;3.05;;
46222;SDS011;31943;51.410;7.564;2023-08-07T11:26:18;11.45;;;3.38;;
46222;SDS011;31943;51.410;7.564;2023-08-07T11:28:44;8.07;;;2.90;;
46222;SDS011;31943;51.410;7.564;2023-08-07T11:31:09;8.77;;;3.28;;
46222;SDS011;31943;51.410;7.564;2023-08-07T11:33:37;7.22;;;3.30;;
46222;SDS011;31943;51.410;7.564;2023-08-07T11:36:09;9.55;;;3.00;;
46222;SDS011;31943;51.410;7.564;2023-08-07T11:38:37;9.63;;;3.63;;
46222;SDS011;31943;51.410;7.564;2023-08-07T11:41:05;9.98;;;3.20;;
46222;SDS011;31943;51.410;7.564;2023-08-07T11:43:33;6.47;;;3.05;;
46222;SDS011;31943;51.410;7.564;2023-08-07T11:46:00;6.68;;;2.25;;
46222;SDS011;31943;51.410;7.564;2023-08-07T11:48:29;9.25;;;2.75;;
46222;SDS011;31943;51.410;7.564;2023-08-07T11:50:59;6.68;;;2.75;;
46222;SDS011;31943;51.410;7.564;2023-08-07T11:53:26;10.82;;;2.63;;
46222;SDS011;31943;51.410;7.564;2023-08-07T11:55:53;11.88;;;3.08;;
46222;SDS011;31943;51.410;7.564;2023-08-07T11:58:21;10.13;;;2.60;;
46222;SDS011;31943;51.410;7.564;2023-08-07T12:00:47;5.20;;;2.47;;
46222;SDS011;31943;51.410;7.564;2023-08-07T12:03:26;7.50;;;2.40;;
46222;SDS011;31943;51.410;7.564;2023-08-07T12:05:53;5.22;;;2.40;;
46222;SDS011;31943;51.410;7.564;2023-08-07T12:08:21;8.73;;;2.75;;
46222;SDS011;31943;51.410;7.564;2023-08-07T12:10:48;6.97;;;2.80;;
46222;SDS011;31943;51.410;7.564;2023-08-07T12:13:19;7.15;;;2.50;;
46222;SDS011;31943;51.410;7.564;2023-08-07T12:15:45;8.77;;;2.90;;
46222;SDS011;31943;51.410;7.564;2023-08-07T12:18:11;11.55;;;2.85;;
46222;SDS011;31943;51.410;7.564;2023-08-07T12:20:36;5.82;;;2.15;;
46222;SDS011;31943;51.410;7.564;2023-08-07T12:23:04;8.57;;;2.13;;
46222;SDS011;31943;51.410;7.564;2023-08-07T12:25:31;8.75;;;2.22;;
46222;SDS011;31943;51.410;7.564;2023-08-07T12:27:56;6.18;;;2.15;;
46222;SDS011;31943;51.410;7.564;2023-08-07T12:30:22;6.50;;;2.03;;
46222;SDS011;31943;51.410;7.564;2023-08-07T12:32:50;6.72;;;1.98;;
46222;SDS011;31943;51.410;7.564;2023-08-07T12:35:15;7.70;;;2.50;;
46222;SDS011;31943;51.410;7.564;2023-08-07T12:37:41;6.10;;;1.98;;
46222;SDS011;31943;51.410;7.564;2023-08-07T12:40:07;5.85;;;2.15;;
46222;SDS011;31943;51.410;7.564;2023-08-07T12:42:36;5.85;;;1.73;;
46222;SDS011;31943;51.410;7.564;2023-08-07T12:45:02;5.40;;;1.80;;
46222;SDS011;31943;51.410;7.564;2023-08-07T12:47:28;5.30;;;1.60;;
46222;SDS011;31943;51.410;7.564;2023-08-07T12:49:54;7.22;;;1.88;;
46222;SDS011;31943;51.410;7.564;2023-08-07T12:52:19;8.70;;;2.10;;
46222;SDS011;31943;51.410;7.564;2023-08-07T12:54:47;5.88;;;2.30;;
46222;SDS011;31943;51.410;7.564;2023-08-07T12:57:13;8.40;;;2.20;;
46222;SDS011;31943;51.410;7.564;2023-08-07T12:59:41;9.38;;;2.33;;
46222;SDS011;31943;51.410;7.564;2023-08-07T13:02:07;7.22;;;1.80;;
46222;SDS011;31943;51.410;7.564;2023-08-07T13:04:32;6.88;;;1.65;;
46222;SDS011;31943;51.410;7.564;2023-08-07T13:06:58;11.43;;;2.28;;
46222;SDS011;31943;51.410;7.564;2023-08-07T13:09:24;6.45;;;1.95;;
46222;SDS011;31943;51.410;7.564;2023-08-07T13:11:49;4.95;;;1.60;;
46222;SDS011;31943;51.410;7.564;2023-08-07T13:14:15;6.53;;;2.22;;
46222;SDS011;31943;51.410;7.564;2023-08-07T13:16:42;6.40;;;2.17;;
46222;SDS011;31943;51.410;7.564;2023-08-07T13:19:08;7.57;;;2.20;;
46222;SDS011;31943;51.410;7.564;2023-08-07T13:21:35;6.15;;;1.70;;
46222;SDS011;31943;51.410;7.564;2023-08-07T13:24:02;7.05;;;1.90;;
46222;SDS011;31943;51.410;7.564;2023-08-07T13:26:29;5.90;;;2.13;;
46222;SDS011;31943;51.410;7.564;2023-08-07T13:28:54;3.45;;;1.88;;
46222;SDS011;31943;51.410;7.564;2023-08-07T13:31:21;6.28;;;1.83;;
46222;SDS011;31943;51.410;7.564;2023-08-07T13:33:48;4.15;;;1.73;;
46222;SDS011;31943;51.410;7.564;2023-08-07T13:36:14;4.53;;;1.35;;
46222;SDS011;31943;51.410;7.564;2023-08-07T13:38:40;6.30;;;2.00;;
46222;SDS011;31943;51.410;7.564;2023-08-07T13:41:06;3.95;;;1.80;;
46222;SDS011;31943;51.410;7.564;2023-08-07T13:43:32;6.18;;;1.80;;
46222;SDS011;31943;51.410;7.564;2023-08-07T13:45:58;3.25;;;1.38;;
46222;SDS011;31943;51.410;7.564;2023-08-07T13:48:24;9.82;;;2.00;;
46222;SDS011;31943;51.410;7.564;2023-08-07T13:50:51;5.05;;;1.60;;
46222;SDS011;31943;51.410;7.564;2023-08-07T13:53:17;4.78;;;1.73;;
46222;SDS011;31943;51.410;7.564;2023-08-07T13:55:44;3.95;;;1.30;;
46222;SDS011;31943;51.410;7.564;2023-08-07T13:58:11;5.15;;;1.70;;
46222;SDS011;31943;51.410;7.564;2023-08-07T14:00:37;6.78;;;1.75;;
46222;SDS011;31943;51.410;7.564;2023-08-07T14:03:04;6.25;;;1.70;;
46222;SDS011;31943;51.410;7.564;2023-08-07T14:05:32;6.05;;;1.50;;
46222;SDS011;31943;51.410;7.564;2023-08-07T14:08:00;7.45;;;1.92;;
46222;SDS011;31943;51.410;7.564;2023-08-07T14:10:26;4.43;;;1.75;;
46222;SDS011;31943;51.410;7.564;2023-08-07T14:12:52;5.72;;;1.67;;
46222;SDS011;31943;51.410;7.564;2023-08-07T14:15:18;4.60;;;1.77;;
46222;SDS011;31943;51.410;7.564;2023-08-07T14:17:44;6.95;;;2.08;;
46222;SDS011;31943;51.410;7.564;2023-08-07T14:20:10;7.80;;;1.85;;
46222;SDS011;31943;51.410;7.564;2023-08-07T14:22:36;6.85;;;1.98;;
46222;SDS011;31943;51.410;7.564;2023-08-07T14:25:03;5.25;;;2.13;;
46222;SDS011;31943;51.410;7.564;2023-08-07T14:27:32;4.68;;;1.60;;
46222;SDS011;31943;51.410;7.564;2023-08-07T14:29:57;5.95;;;2.08;;
46222;SDS011;31943;51.410;7.564;2023-08-07T14:32:23;5.07;;;2.13;;
46222;SDS011;31943;51.410;7.564;2023-08-07T14:34:49;4.82;;;1.58;;
46222;SDS011;31943;51.410;7.564;2023-08-07T14:37:14;5.93;;;1.65;;
46222;SDS011;31943;51.410;7.564;2023-08-07T14:39:40;4.15;;;1.42;;
46222;SDS011;31943;51.410;7.564;2023-08-07T14:42:08;3.95;;;1.98;;